Andover, SD

6:45 AM CDT on July 22, 2014 (GMT -0500)
KSDGROTO1 Elev 1295 ft | 45.45 °N, 98.10 °W | Change Station

Current weather conditions updated 12 minutes ago

Clear
Clear
62.9 °F
Feels Like 62.9 °F
N
4.0
Wind Variable Wind from North
Gusts 5.0 mph

Today is forecast to be Cooler than yesterday.

Today
High -- | Low -- °F
--% Chance of Precip.
Yesterday
High -- | Low -- °F
Precip. -- in
6:04 AM 9:10 PM
Waning Crescent, 18% visible
Pressure 30.02 in
Visibility 10.0 miles
Clouds Clear
Dew Point 62 °F
Humidity 96%
Rainfall 0.00 in
Snow Depth Not available.
UV 0 out of 12
Pollen 6.10 out of 12
Air Quality Not available.
Flu Activity Sporadic
METAR KABR 221053Z AUTO 31004KT 10SM CLR 16/16 A3004 RMK AO2 SLP164 T01610161

More Conditions Fewer Conditions

Pressure 30.02 in
Visibility 10.0 miles
Clouds Clear
Dew Point 62 °F
Humidity 96%
Rainfall 0.00 in
Snow Depth Not available.
UV 0 out of 12
Pollen 6.10 out of 12
Air Quality Not available.
Flu Activity Sporadic
METAR KABR 221053Z AUTO 31004KT 10SM CLR 16/16 A3004 RMK AO2 SLP164 T01610161

More Conditions Fewer Conditions

10-Day Weather Forecast

LIGHTNING

Thunderstorms are forecast for your area. Cloud conditions might be right for producing strikes in the next few days, though lightning itself cannot be forecasted.

Lightning is a visible electrical discharge produced by a thunderstorm, based on the build up of oppositely charged particles within a cloud and from cloud to ground.

Know how to stay safe in a lightning storm.

Check out these Lightning WunderPhotos!

Almanac

Astronomy

Jul. 22, 2014 Rise Set
Actual Time 6:04 AM CDT 9:10 PM CDT
Civil Twilight 5:29 AM CDT 9:46 PM CDT
Nautical Twilight 4:43 AM CDT 10:31 PM CDT
Astronomical Twilight 3:48 AM CDT 11:26 PM CDT
Moon 2:41 AM CDT 5:48 PM CDT
Length of Visible Light 16h 16m
Length of Day
15h 06m
Tomorrow will be 2m 4s shorter.
Waning Crescent, 18% of the Moon is Illuminated
Today
Waning Crescent
Jul 26
New
Aug 3
First Quarter
Aug 10
Full
Aug 17
Last Quarter

Today's Extremes

State Highs State Lows

Community

WunderPhotos

Upload Photos

1,736,199 photos uploaded!

Nearby

Snow Depth

Station Depth Elevation
North Rapid Creek 0 in 6130 ft
Blind Park 0 in 6890 ft

Earthquake Activity

City Distance Mag. Time & Date
No recent earthquake activity has been reported nearby.
Minimum magnitude displayed is 2.5.

Coastal Water Temperatures

Place Temperature
No Stations Reporting

Nearby Weather Stations

Station Location Temp. Dew Point Humidity Wind Precip. Elev Updated Type
Groton, SD 62.9 °F 62 °F 96% North  at  4.0 mph 0.00 in / hr 1295 ft 6:33 AM CDT Normal
NonFedAWOS WEBSTERMUNC , Webster, SD 64 °F 63 °F 94% North  at  6 mph 0.00 in / hr 1854 ft 5:55 AM CDT MADIS

Show More Stations Show Fewer Stations